Time,TemperatureF,DewpointF,PressureIn,WindDirection,WindDirectionDegrees,WindSpeedMPH,WindSpeedGustMPH,Humidity,HourlyPrecipIn,Conditions,Clouds,dailyrainin,SoftwareType,DateUTC
2013-07-18 09:42:00,72.0,40.0,-100.00,North,-999,-999.0,-999.0,31,-99.99,,,-99.99,,2013-07-18 16:42:00,
2013-07-18 09:52:00,72.0,40.0,-100.00,ESE,103,3.0,7.0,31,-99.99,,,-99.99,,2013-07-18 16:52:00,
2013-07-18 10:02:00,72.0,40.0,-100.00,ESE,103,3.0,7.0,31,-99.99,,,-99.99,,2013-07-18 17:02:00,
2013-07-18 10:11:00,74.0,41.0,-100.00,ESE,109,3.0,6.0,30,-99.99,,,-99.99,,2013-07-18 17:11:00,
2013-07-18 10:22:00,74.0,41.0,-100.00,ESE,109,3.0,6.0,30,-99.99,,,-99.99,,2013-07-18 17:22:00,
2013-07-18 10:43:00,76.0,34.0,-100.00,ESE,102,4.0,10.0,22,-99.99,,,-99.99,,2013-07-18 17:43:00,
2013-07-18 11:01:00,77.0,34.0,-100.00,East,82,4.0,9.0,21,-99.99,,,-99.99,,2013-07-18 18:01:00,
2013-07-18 11:11:00,79.0,37.0,-100.00,East,93,3.0,8.0,22,-99.99,,,-99.99,,2013-07-18 18:11:00,
2013-07-18 11:22:00,79.0,37.0,-100.00,East,93,3.0,8.0,22,-99.99,,,-99.99,,2013-07-18 18:22:00,
2013-07-18 11:32:00,81.0,40.0,-100.00,ESE,106,4.0,9.0,23,-99.99,,,-99.99,,2013-07-18 18:32:00,
2013-07-18 11:43:00,81.0,40.0,-100.00,ESE,106,4.0,9.0,23,-99.99,,,-99.99,,2013-07-18 18:43:00,
2013-07-18 11:52:00,81.0,40.0,-100.00,ESE,106,4.0,9.0,23,-99.99,,,-99.99,,2013-07-18 18:52:00,
2013-07-18 12:01:00,81.0,40.0,-100.00,ESE,106,4.0,9.0,23,-99.99,,,-99.99,,2013-07-18 19:01:00,
2013-07-18 12:22:00,85.0,34.0,-100.00,East,90,4.0,8.0,16,-99.99,,,-99.99,,2013-07-18 19:22:00,
2013-07-18 12:32:00,85.0,34.0,-100.00,East,90,4.0,8.0,16,-99.99,,,-99.99,,2013-07-18 19:32:00,
2013-07-18 12:43:00,85.0,34.0,-100.00,East,90,4.0,8.0,16,-99.99,,,-99.99,,2013-07-18 19:43:00,
2013-07-18 12:53:00,87.0,34.0,-100.00,ESE,106,4.0,10.0,15,-99.99,,,-99.99,,2013-07-18 19:53:00,
2013-07-18 13:01:00,88.0,31.0,-100.00,East,100,5.0,10.0,13,-99.99,,,-99.99,,2013-07-18 20:01:00,
2013-07-18 13:11:00,88.0,31.0,-100.00,East,100,5.0,10.0,13,-99.99,,,-99.99,,2013-07-18 20:11:00,
2013-07-18 13:43:00,90.0,24.0,-100.00,East,93,4.0,9.0,9,-99.99,,,-99.99,,2013-07-18 20:43:00,
2013-07-18 13:52:00,90.0,24.0,-100.00,East,93,4.0,9.0,9,-99.99,,,-99.99,,2013-07-18 20:52:00,
2013-07-18 14:22:00,90.0,24.0,-100.00,ESE,103,3.0,8.0,9,-99.99,,,-99.99,,2013-07-18 21:22:00,
2013-07-18 14:32:00,90.0,26.0,-100.00,ESE,113,4.0,10.0,10,-99.99,,,-99.99,,2013-07-18 21:32:00,
2013-07-18 14:43:00,91.0,24.0,-100.00,ESE,113,4.0,11.0,9,-99.99,,,-99.99,,2013-07-18 21:43:00,
2013-07-18 14:52:00,91.0,24.0,-100.00,ESE,113,4.0,11.0,9,-99.99,,,-99.99,,2013-07-18 21:52:00,
2013-07-18 15:01:00,91.0,24.0,-100.00,ESE,113,4.0,11.0,9,-99.99,,,-99.99,,2013-07-18 22:01:00,
2013-07-18 15:11:00,91.0,24.0,-100.00,ESE,113,4.0,11.0,9,-99.99,,,-99.99,,2013-07-18 22:11:00,
2013-07-18 15:22:00,92.0,25.0,-100.00,ENE,62,3.0,9.0,9,-99.99,,,-99.99,,2013-07-18 22:22:00,
2013-07-18 15:32:00,92.0,25.0,-100.00,ENE,62,3.0,9.0,9,-99.99,,,-99.99,,2013-07-18 22:32:00,
2013-07-18 15:42:00,93.0,26.0,-100.00,NE,38,3.0,8.0,9,-99.99,,,-99.99,,2013-07-18 22:42:00,
2013-07-18 15:53:00,91.0,29.0,-100.00,NNE,18,3.0,11.0,11,-99.99,,,-99.99,,2013-07-18 22:53:00,
2013-07-18 16:01:00,91.0,29.0,-100.00,NNE,18,3.0,11.0,11,-99.99,,,-99.99,,2013-07-18 23:01:00,
2013-07-18 16:11:00,91.0,29.0,-100.00,WNW,302,6.0,15.0,11,-99.99,,,-99.99,,2013-07-18 23:11:00,
2013-07-18 16:22:00,91.0,29.0,-100.00,WNW,302,6.0,15.0,11,-99.99,,,-99.99,,2013-07-18 23:22:00,
2013-07-18 16:32:00,91.0,29.0,-100.00,WNW,302,6.0,15.0,11,-99.99,,,-99.99,,2013-07-18 23:32:00,
2013-07-18 16:42:00,90.0,32.0,-100.00,North,-999,-999.0,-999.0,12,-99.99,,,-99.99,,2013-07-18 23:42:00,
2013-07-18 16:52:00,90.0,31.0,-100.00,WNW,288,7.0,15.0,12,-99.99,,,-99.99,,2013-07-18 23:52:00,
2013-07-18 17:01:00,90.0,31.0,-100.00,WNW,288,7.0,15.0,12,-99.99,,,-99.99,,2013-07-19 00:01:00,
2013-07-18 17:22:00,89.0,38.0,-100.00,WNW,291,8.0,16.0,17,-99.99,,,-99.99,,2013-07-19 00:22:00,
2013-07-18 17:32:00,89.0,38.0,-100.00,WNW,291,8.0,16.0,17,-99.99,,,-99.99,,2013-07-19 00:32:00,
2013-07-18 17:42:00,88.0,41.0,-100.00,WNW,287,8.0,20.0,19,-99.99,,,-99.99,,2013-07-19 00:42:00,
2013-07-18 17:52:00,88.0,41.0,-100.00,WNW,287,8.0,20.0,19,-99.99,,,-99.99,,2013-07-19 00:52:00,
2013-07-18 18:11:00,87.0,41.0,-100.00,WNW,292,7.0,20.0,20,-99.99,,,-99.99,,2013-07-19 01:11:00,
2013-07-18 18:21:00,86.0,40.0,-100.00,WNW,287,8.0,19.0,20,-99.99,,,-99.99,,2013-07-19 01:21:00,
2013-07-18 18:32:00,86.0,40.0,-100.00,WNW,287,8.0,19.0,20,-99.99,,,-99.99,,2013-07-19 01:32:00,
2013-07-18 18:42:00,86.0,40.0,-100.00,WNW,295,9.0,19.0,20,-99.99,,,-99.99,,2013-07-19 01:42:00,
2013-07-18 18:52:00,86.0,40.0,-100.00,WNW,295,9.0,19.0,20,-99.99,,,-99.99,,2013-07-19 01:52:00,
2013-07-18 19:01:00,85.0,39.0,-100.00,WNW,291,7.0,19.0,20,-99.99,,,-99.99,,2013-07-19 02:01:00,
2013-07-18 19:11:00,85.0,39.0,-100.00,WNW,291,7.0,19.0,20,-99.99,,,-99.99,,2013-07-19 02:11:00,
2013-07-18 19:22:00,84.0,40.0,-100.00,WNW,287,8.0,21.0,21,-99.99,,,-99.99,,2013-07-19 02:22:00,
2013-07-18 19:32:00,84.0,40.0,-100.00,WNW,287,8.0,21.0,21,-99.99,,,-99.99,,2013-07-19 02:32:00,
2013-07-18 19:42:00,83.0,40.0,-100.00,WNW,287,8.0,18.0,22,-99.99,,,-99.99,,2013-07-19 02:42:00,
2013-07-18 19:52:00,83.0,40.0,-100.00,WNW,287,8.0,18.0,22,-99.99,,,-99.99,,2013-07-19 02:52:00,
2013-07-18 20:11:00,82.0,41.0,-100.00,WNW,285,9.0,22.0,23,-99.99,,,-99.99,,2013-07-19 03:11:00,
2013-07-18 20:22:00,81.0,41.0,-100.00,West,281,9.0,19.0,24,-99.99,,,-99.99,,2013-07-19 03:22:00,
2013-07-18 20:32:00,81.0,41.0,-100.00,West,281,9.0,19.0,24,-99.99,,,-99.99,,2013-07-19 03:32:00,
2013-07-18 20:42:00,81.0,41.0,-100.00,West,281,9.0,19.0,24,-99.99,,,-99.99,,2013-07-19 03:42:00,